Time;durP1;ratioP1;P1;durP2;ratioP2;P2;SDS_P1;SDS_P2;PMS_P1;PMS_P2;Temp;Humidity;BMP_temperature;BMP_pressure;BME280_temperature;BME280_humidity;BME280_pressure;Samples;Min_cycle;Max_cycle;Signal;HPM_P1;HPM_P2
2022/11/08 00:01:59;;;;;;;46.90;28.03;;;;;;;9.98;99.08;93281.88;5098617;28;20214;-69
2022/11/08 00:04:25;;;;;;;40.43;25.83;;;;;;;9.82;99.87;93272.47;5100169;28;20275;-70
2022/11/08 00:15:05;;;;;;;45.40;27.57;;;;;;;9.52;100.00;93223.63;5100016;28;20227;-68
2022/11/08 00:17:31;;;;;;;37.63;25.37;;;;;;;9.84;99.48;93275.56;5087326;28;20198;-71
2022/11/08 00:19:57;;;;;;;47.07;27.47;;;;;;;9.84;99.28;93272.19;5088154;28;20212;-70
2022/11/08 00:22:23;;;;;;;52.90;29.13;;;;;;;9.79;99.43;93265.13;5087712;28;20189;-69
2022/11/08 00:24:52;;;;;;;40.97;26.50;;;;;;;9.73;99.09;93268.75;5086831;28;20231;-69
2022/11/08 00:27:20;;;;;;;35.73;24.73;;;;;;;9.61;99.57;93265.59;5087757;28;20230;-70
2022/11/08 00:29:46;;;;;;;34.30;23.63;;;;;;;9.55;100.00;93257.00;5088978;28;20221;-70
2022/11/08 00:32:18;;;;;;;35.40;25.37;;;;;;;9.42;100.00;93269.69;5087982;28;20177;-69
2022/11/08 00:34:43;;;;;;;37.97;24.23;;;;;;;9.31;100.00;93252.44;5086648;28;20229;-70
2022/11/08 00:37:09;;;;;;;34.00;25.03;;;;;;;9.47;100.00;93260.09;5087593;28;20219;-70
2022/11/08 00:39:34;;;;;;;38.50;25.13;;;;;;;9.51;100.00;93260.34;5084394;28;20233;-69
2022/11/08 00:42:00;;;;;;;46.00;27.43;;;;;;;9.36;100.00;93242.06;5088678;28;20184;-70
2022/11/08 00:44:25;;;;;;;39.93;26.97;;;;;;;9.46;100.00;93266.31;5087823;28;20221;-70
2022/11/08 00:46:51;;;;;;;40.47;26.27;;;;;;;9.44;100.00;93270.22;5086943;28;20227;-69
2022/11/08 00:49:17;;;;;;;39.30;26.03;;;;;;;9.40;100.00;93248.34;5087366;28;20184;-70
2022/11/08 00:51:42;;;;;;;37.50;24.53;;;;;;;9.65;99.94;93254.41;5107557;28;20266;-69
2022/11/08 00:54:12;;;;;;;36.73;23.20;;;;;;;9.50;99.90;93251.75;5108543;28;20222;-70
2022/11/08 00:56:37;;;;;;;33.93;24.40;;;;;;;9.58;100.00;93259.09;5108543;28;20176;-69
2022/11/08 00:59:03;;;;;;;38.03;23.20;;;;;;;9.61;100.00;93263.00;5108314;28;20209;-69
2022/11/08 01:01:28;;;;;;;31.73;23.13;;;;;;;9.72;99.90;93264.59;5105583;28;20236;-70
2022/11/08 01:03:54;;;;;;;30.57;21.80;;;;;;;9.67;99.92;93264.56;5107473;28;20183;-69
2022/11/08 01:06:22;;;;;;;29.67;21.20;;;;;;;9.64;99.86;93252.84;5107725;28;20223;-70
2022/11/08 01:08:48;;;;;;;23.03;20.53;;;;;;;9.73;99.53;93266.16;5110735;28;20188;-69
2022/11/08 01:11:17;;;;;;;29.20;22.87;;;;;;;9.82;99.21;93264.63;5107148;28;20235;-70
2022/11/08 01:13:43;;;;;;;27.80;20.67;;;;;;;9.67;99.63;93248.94;5113416;28;20191;-70
2022/11/08 01:16:14;;;;;;;32.53;21.67;;;;;;;9.62;100.00;93246.31;5109845;28;20220;-70
2022/11/08 01:18:40;;;;;;;31.53;22.60;;;;;;;9.70;99.97;93267.47;5113258;28;20199;-68
2022/11/08 01:21:06;;;;;;;31.40;20.67;;;;;;;9.65;100.00;93256.22;5111056;28;20242;-69
2022/11/08 01:23:32;;;;;;;29.83;21.20;;;;;;;9.69;100.00;93246.88;5111894;28;20223;-70
2022/11/08 01:26:04;;;;;;;23.43;19.90;;;;;;;9.66;100.00;93255.19;5111039;28;20232;-69
2022/11/08 01:28:31;;;;;;;28.50;21.63;;;;;;;9.61;100.00;93250.75;5110028;28;20195;-70
2022/11/08 01:30:56;;;;;;;31.10;20.93;;;;;;;9.71;100.00;93252.63;5109538;28;20217;-70
2022/11/08 01:33:22;;;;;;;22.33;18.67;;;;;;;9.80;100.00;93264.88;5111646;28;20199;-70
2022/11/08 01:35:47;;;;;;;24.30;18.77;;;;;;;9.76;100.00;93257.81;5111653;28;20223;-69
2022/11/08 01:38:13;;;;;;;21.90;19.43;;;;;;;9.60;100.00;93256.22;5111535;28;20195;-69
2022/11/08 01:40:45;;;;;;;25.03;20.30;;;;;;;9.71;100.00;93263.81;5110590;28;20248;-69
2022/11/08 01:43:29;;;;;;;30.67;22.03;;;;;;;9.77;100.00;93262.00;5111324;28;20190;-69
2022/11/08 01:46:25;;;;;;;28.00;22.13;;;;;;;9.76;100.00;93261.22;5110978;28;20246;-70
2022/11/08 01:48:59;;;;;;;32.70;22.87;;;;;;;9.78;100.00;93255.75;5111932;28;20207;-69
2022/11/08 01:51:40;;;;;;;31.87;23.10;;;;;;;9.79;100.00;93250.28;5111114;28;20223;-69
2022/11/08 01:54:10;;;;;;;34.97;24.97;;;;;;;9.75;100.00;93259.66;5111820;28;20184;-70
2022/11/08 01:56:37;;;;;;;32.13;25.13;;;;;;;9.78;100.00;93250.53;5108853;28;20187;-70
2022/11/08 01:59:06;;;;;;;30.90;23.80;;;;;;;9.84;100.00;93256.56;5112669;28;20285;-69
2022/11/08 02:01:32;;;;;;;34.30;24.30;;;;;;;9.83;100.00;93253.16;5109847;28;20208;-69
2022/11/08 02:03:59;;;;;;;40.10;25.57;;;;;;;9.80;100.00;93259.66;5111919;28;20180;-70
2022/11/08 02:06:25;;;;;;;41.00;26.13;;;;;;;9.76;100.00;93261.22;5109105;28;20288;-70
2022/11/08 02:08:50;;;;;;;46.00;27.37;;;;;;;9.89;100.00;93259.94;5111868;28;20316;-70
2022/11/08 02:11:17;;;;;;;43.43;27.20;;;;;;;9.77;100.00;93259.41;5109452;28;20224;-69
2022/11/08 02:13:42;;;;;;;45.00;26.57;;;;;;;9.77;100.00;93247.13;5112110;28;20222;-70
2022/11/08 02:16:13;;;;;;;42.47;26.53;;;;;;;9.93;100.00;93263.59;5110909;28;20211;-69
2022/11/08 02:18:40;;;;;;;44.20;27.40;;;;;;;9.92;100.00;93264.63;5111801;28;20219;-71
2022/11/08 02:21:24;;;;;;;47.63;27.80;;;;;;;9.95;100.00;93274.56;5110764;28;20217;-70
2022/11/08 02:23:52;;;;;;;43.93;28.23;;;;;;;9.94;100.00;93272.22;5110872;28;20207;-69
2022/11/08 02:26:21;;;;;;;44.27;28.20;;;;;;;10.00;100.00;93277.19;5111286;28;20219;-70
2022/11/08 02:28:48;;;;;;;44.00;29.03;;;;;;;10.07;100.00;93272.50;5110331;28;20194;-70
2022/11/08 02:31:16;;;;;;;44.10;29.57;;;;;;;10.03;100.00;93275.88;5109975;28;20207;-70
2022/11/08 02:33:42;;;;;;;43.23;29.43;;;;;;;10.03;100.00;93278.47;5111047;28;20193;-70
2022/11/08 02:36:11;;;;;;;43.57;29.50;;;;;;;10.12;100.00;93275.13;5109211;28;20224;-70
2022/11/08 02:38:44;;;;;;;47.07;29.87;;;;;;;10.06;100.00;93278.75;5107709;28;20204;-70
2022/11/08 02:41:10;;;;;;;48.17;29.10;;;;;;;10.04;100.00;93273.00;5090764;28;20221;-70
2022/11/08 02:43:35;;;;;;;47.93;29.20;;;;;;;10.11;100.00;93273.59;5090270;28;20215;-69
2022/11/08 02:46:01;;;;;;;43.03;29.60;;;;;;;9.75;100.00;93222.38;5091118;28;20224;-70
2022/11/08 02:48:26;;;;;;;45.83;29.03;;;;;;;10.08;100.00;93278.53;5092590;28;20264;-69
2022/11/08 02:50:52;;;;;;;60.13;30.80;;;;;;;9.98;100.00;93258.38;5090954;28;20239;-69
2022/11/08 02:53:18;;;;;;;41.90;29.03;;;;;;;10.02;100.00;93263.88;5089047;28;20265;-70
2022/11/08 02:55:44;;;;;;;46.77;31.07;;;;;;;10.10;100.00;93260.78;5090641;28;20262;-70
2022/11/08 02:58:10;;;;;;;45.80;31.47;;;;;;;10.06;100.00;93259.69;5089906;28;20196;-69
2022/11/08 03:00:36;;;;;;;48.40;29.33;;;;;;;9.95;100.00;93256.28;5089730;28;20301;-69
2022/11/08 03:03:02;;;;;;;49.10;32.07;;;;;;;10.04;100.00;93254.75;5090770;28;20185;-69
2022/11/08 03:05:28;;;;;;;47.90;29.03;;;;;;;10.02;100.00;93256.84;5090254;28;20237;-71
2022/11/08 03:07:54;;;;;;;43.97;28.87;;;;;;;10.02;100.00;93256.84;5085920;28;20273;-70
2022/11/08 03:10:22;;;;;;;45.93;29.43;;;;;;;9.90;100.00;93248.47;5088177;28;20224;-70
2022/11/08 03:12:58;;;;;;;46.13;29.67;;;;;;;9.97;100.00;93261.25;5091319;28;20940;-70
2022/11/08 03:15:24;;;;;;;46.43;27.80;;;;;;;10.05;100.00;93264.16;5090504;28;20230;-71
2022/11/08 03:17:50;;;;;;;45.27;28.30;;;;;;;10.07;100.00;93272.50;5090393;28;20188;-70
2022/11/08 03:20:15;;;;;;;42.90;28.33;;;;;;;10.10;100.00;93266.78;5098682;28;20219;-70
2022/11/08 03:22:41;;;;;;;42.70;29.93;;;;;;;9.95;100.00;93248.47;5109800;28;20185;-69
2022/11/08 03:25:06;;;;;;;44.53;28.80;;;;;;;10.06;100.00;93268.31;5106144;28;20219;-71
2022/11/08 03:27:32;;;;;;;44.13;28.23;;;;;;;10.04;100.00;93267.03;5110575;28;20212;-69
2022/11/08 03:29:57;;;;;;;47.27;30.17;;;;;;;10.01;100.00;93272.75;5107486;28;20274;-70
2022/11/08 03:32:22;;;;;;;46.70;28.93;;;;;;;10.08;100.00;93268.88;5110339;28;20180;-71
2022/11/08 03:34:48;;;;;;;43.13;28.77;;;;;;;10.01;100.00;93262.31;5108599;28;20295;-69
2022/11/08 03:37:13;;;;;;;41.67;27.60;;;;;;;10.17;100.00;93267.31;5106052;28;20187;-70
2022/11/08 03:39:39;;;;;;;46.90;30.47;;;;;;;10.17;100.00;93275.16;5109000;28;20231;-70
2022/11/08 03:42:04;;;;;;;49.17;28.73;;;;;;;10.30;100.00;93277.25;5108836;28;20180;-70
2022/11/08 03:44:31;;;;;;;47.20;28.60;;;;;;;9.93;100.00;93237.50;5108380;28;20232;-70
2022/11/08 03:46:56;;;;;;;47.60;27.80;;;;;;;10.19;100.00;93280.91;5107657;28;20227;-70
2022/11/08 03:49:21;;;;;;;40.20;27.40;;;;;;;10.22;100.00;93283.00;5108942;28;20210;-70
2022/11/08 03:51:47;;;;;;;41.80;27.57;;;;;;;10.27;100.00;93280.41;5104712;28;20188;-69
2022/11/08 03:54:13;;;;;;;45.27;28.57;;;;;;;10.20;100.00;93282.47;5108658;28;20195;-70
2022/11/08 03:56:38;;;;;;;40.80;26.17;;;;;;;9.93;100.00;93236.75;5109144;28;20253;-70
2022/11/08 03:59:04;;;;;;;47.37;29.93;;;;;;;10.19;100.00;93272.28;5109167;28;20180;-70
2022/11/08 04:01:29;;;;;;;42.57;29.07;;;;;;;10.26;100.00;93275.41;5106930;28;20244;-70
2022/11/08 04:03:54;;;;;;;47.37;30.30;;;;;;;10.26;100.00;93276.19;5104780;28;20188;-70
2022/11/08 04:06:20;;;;;;;46.53;28.10;;;;;;;10.24;100.00;93277.50;5107800;28;20258;-70
2022/11/08 04:08:45;;;;;;;44.40;29.60;;;;;;;10.26;100.00;93275.41;5109450;28;20203;-70
2022/11/08 04:16:39;;;;;;;43.47;29.23;;;;;;;10.22;100.00;93284.81;5107993;28;20273;-69
2022/11/08 04:21:51;;;;;;;50.00;29.63;;;;;;;10.20;100.00;93276.44;5099951;28;20222;-70
2022/11/08 04:24:16;;;;;;;53.60;30.53;;;;;;;10.22;100.00;93277.78;5099193;28;20202;-69
2022/11/08 04:26:42;;;;;;;39.87;27.30;;;;;;;10.33;100.00;93276.75;5089054;28;20214;-70
2022/11/08 04:29:08;;;;;;;47.47;29.03;;;;;;;10.23;100.00;93274.09;5089064;28;20188;-71
2022/11/08 04:31:34;;;;;;;41.77;28.30;;;;;;;10.18;100.00;93258.44;5105623;28;20212;-70
2022/11/08 04:34:00;;;;;;;47.23;29.03;;;;;;;10.33;100.00;93273.34;5106915;28;20181;-70
2022/11/08 04:36:26;;;;;;;45.00;30.20;;;;;;;10.41;100.00;93284.03;5106975;28;20237;-70
2022/11/08 04:38:51;;;;;;;53.57;30.53;;;;;;;10.43;100.00;93275.97;5109732;28;20247;-70
2022/11/08 04:41:22;;;;;;;49.47;31.33;;;;;;;10.33;100.00;93266.31;5104399;28;20220;-69
2022/11/08 04:43:52;;;;;;;49.20;30.13;;;;;;;10.35;100.00;93266.81;5107586;28;20180;-68
2022/11/08 04:46:20;;;;;;;46.03;29.93;;;;;;;10.47;100.00;93271.78;5108042;28;20288;-69
2022/11/08 04:48:46;;;;;;;47.40;29.23;;;;;;;10.42;100.00;93267.34;5106216;28;20212;-70
2022/11/08 04:51:14;;;;;;;46.30;29.47;;;;;;;10.43;100.00;93273.34;5106738;28;20247;-70
2022/11/08 04:53:39;;;;;;;44.87;29.53;;;;;;;10.46;100.00;93275.44;5104581;28;20198;-70
2022/11/08 04:56:14;;;;;;;39.00;28.63;;;;;;;10.36;100.00;93275.44;5107833;28;20251;-69
2022/11/08 04:58:41;;;;;;;47.30;29.80;;;;;;;10.30;100.00;93264.22;5108699;28;20263;-69
2022/11/08 05:01:09;;;;;;;50.17;31.80;;;;;;;10.43;100.00;93278.56;5106906;28;20230;-69
2022/11/08 05:03:34;;;;;;;45.30;28.33;;;;;;;10.40;100.00;93277.25;5105894;28;20199;-68
2022/11/08 05:06:05;;;;;;;44.73;29.20;;;;;;;10.41;100.00;93289.25;5089175;28;20231;-69
2022/11/08 05:08:32;;;;;;;46.10;30.00;;;;;;;10.44;100.00;93282.75;5087419;28;20322;-69
2022/11/08 05:11:05;;;;;;;43.97;30.37;;;;;;;10.45;100.00;93305.19;5094932;28;20235;-70
2022/11/08 05:13:31;;;;;;;44.00;28.33;;;;;;;10.28;100.00;93289.78;5095643;28;20194;-69
2022/11/08 05:16:03;;;;;;;48.53;28.90;;;;;;;10.40;100.00;93292.91;5088371;28;20209;-72
2022/11/08 05:18:30;;;;;;;45.33;28.77;;;;;;;10.41;100.00;93281.41;5083559;28;20180;-71
2022/11/08 05:23:41;;;;;;;48.97;28.97;;;;;;;10.44;100.00;93286.16;5105053;28;20198;-70
2022/11/08 05:26:07;;;;;;;47.97;28.73;;;;;;;10.43;100.00;93297.59;5105217;28;20273;-72
2022/11/08 05:28:33;;;;;;;45.57;28.93;;;;;;;10.51;100.00;93296.31;5106591;28;20185;-68
2022/11/08 05:30:59;;;;;;;57.33;30.07;;;;;;;10.50;100.00;93286.91;5107595;28;20336;-64
2022/11/08 05:33:24;;;;;;;46.03;29.40;;;;;;;10.62;100.00;93288.22;5108116;28;21071;-65
2022/11/08 05:35:51;;;;;;;48.33;30.27;;;;;;;10.58;100.00;93289.00;5105696;28;20973;-70
2022/11/08 05:38:16;;;;;;;46.40;29.20;;;;;;;10.56;100.00;93291.88;5104590;28;20181;-70
2022/11/08 05:40:42;;;;;;;43.97;29.73;;;;;;;10.59;100.00;93293.97;5094124;28;20240;-69
2022/11/08 05:43:08;;;;;;;41.00;28.43;;;;;;;10.51;100.00;93291.88;5087744;28;20270;-69
2022/11/08 05:45:34;;;;;;;44.10;29.40;;;;;;;10.37;100.00;93256.09;5099968;28;20221;-69
2022/11/08 05:48:02;;;;;;;45.93;28.73;;;;;;;10.48;100.00;93289.00;5104958;28;20220;-70
2022/11/08 05:50:32;;;;;;;47.23;30.17;;;;;;;10.31;100.00;93257.94;5107253;28;20238;-69
2022/11/08 05:52:58;;;;;;;51.30;30.67;;;;;;;10.67;100.00;93296.06;5108095;28;20215;-69
2022/11/08 05:55:24;;;;;;;48.80;29.90;;;;;;;10.55;100.00;93292.91;5112865;28;20257;-70
2022/11/08 05:57:50;;;;;;;49.23;31.00;;;;;;;10.64;100.00;93298.41;5110162;28;20200;-70
2022/11/08 06:00:16;;;;;;;47.93;29.43;;;;;;;10.68;100.00;93296.81;5107290;28;20213;-70
2022/11/08 06:02:41;;;;;;;47.20;30.63;;;;;;;10.80;100.00;93307.81;5108669;28;20194;-70
2022/11/08 06:05:07;;;;;;;49.30;30.40;;;;;;;10.72;100.00;93319.53;5106341;28;20252;-70
2022/11/08 06:07:33;;;;;;;51.03;31.10;;;;;;;10.65;100.00;93305.97;5109658;28;20222;-70
2022/11/08 06:09:59;;;;;;;51.23;30.17;;;;;;;10.77;100.00;93318.78;5106111;28;20225;-71
2022/11/08 06:12:24;;;;;;;43.33;28.97;;;;;;;10.78;100.00;93321.13;5109827;28;20204;-70
2022/11/08 06:14:49;;;;;;;49.50;31.90;;;;;;;10.78;100.00;93310.69;5110112;28;20224;-69
2022/11/08 06:17:15;;;;;;;55.43;33.90;;;;;;;10.98;100.00;93328.94;5110845;28;20182;-70
2022/11/08 06:19:40;;;;;;;53.90;30.73;;;;;;;10.91;100.00;93325.81;5109540;28;20231;-71
2022/11/08 06:22:06;;;;;;;56.03;33.03;;;;;;;10.96;100.00;93331.03;5109328;28;20187;-70
2022/11/08 06:24:31;;;;;;;59.30;31.27;;;;;;;11.04;100.00;93330.50;5110409;28;20237;-70
2022/11/08 06:26:56;;;;;;;63.43;34.43;;;;;;;10.93;100.00;93333.38;5108414;28;20213;-70
2022/11/08 06:29:22;;;;;;;61.33;33.63;;;;;;;11.02;100.00;93339.63;5109669;28;20176;-71
2022/11/08 06:31:47;;;;;;;54.73;31.83;;;;;;;10.82;100.00;93332.63;5110766;28;20180;-70
2022/11/08 06:34:12;;;;;;;59.93;38.33;;;;;;;10.91;100.00;93346.72;5109203;28;20970;-68
2022/11/08 06:36:38;;;;;;;57.80;33.80;;;;;;;10.69;100.00;93348.78;5109587;28;20188;-68
2022/11/08 06:39:03;;;;;;;52.73;31.93;;;;;;;10.77;100.00;93339.69;5110804;28;20203;-68
2022/11/08 06:41:29;;;;;;;57.70;34.13;;;;;;;10.71;100.00;93346.72;5107900;28;20236;-68
2022/11/08 06:43:55;;;;;;;60.60;35.27;;;;;;;10.56;100.00;93338.88;5104635;28;20189;-68
2022/11/08 06:46:21;;;;;;;56.77;33.67;;;;;;;10.79;100.00;93348.00;5109140;28;20236;-68
2022/11/08 06:48:46;;;;;;;56.37;34.10;;;;;;;10.72;100.00;93352.72;5108877;28;20201;-69
2022/11/08 06:51:12;;;;;;;52.43;33.03;;;;;;;10.80;100.00;93366.03;5109427;28;20521;-68
2022/11/08 06:53:37;;;;;;;53.93;32.13;;;;;;;10.83;100.00;93360.28;5110478;28;20936;-67
2022/11/08 06:56:03;;;;;;;57.67;32.27;;;;;;;10.97;100.00;93365.78;5108529;28;20223;-69
2022/11/08 06:58:29;;;;;;;52.63;30.40;;;;;;;10.90;100.00;93353.00;5108552;28;20195;-68
2022/11/08 07:00:54;;;;;;;53.97;31.87;;;;;;;10.93;100.00;93365.53;5110417;28;20249;-68
2022/11/08 07:03:20;;;;;;;53.97;32.00;;;;;;;11.03;100.00;93370.75;5110771;28;20214;-67
2022/11/08 07:05:45;;;;;;;51.87;31.57;;;;;;;11.05;100.00;93360.81;5106151;28;20247;-67
2022/11/08 07:08:11;;;;;;;43.90;30.63;;;;;;;11.15;100.00;93371.28;5108940;28;20233;-68
2022/11/08 07:10:39;;;;;;;54.57;32.90;;;;;;;11.12;100.00;93377.03;5111085;28;20224;-68
2022/11/08 07:13:11;;;;;;;45.97;29.87;;;;;;;11.23;100.00;93368.13;5109587;28;20176;-68
2022/11/08 07:15:37;;;;;;;52.20;30.13;;;;;;;11.26;100.00;93364.19;5109758;28;20223;-70
2022/11/08 07:18:10;;;;;;;55.17;32.97;;;;;;;11.10;100.00;93366.03;5105016;28;20185;-70
2022/11/08 07:20:37;;;;;;;51.97;31.47;;;;;;;11.17;100.00;93371.78;5108472;28;20694;-70
2022/11/08 07:23:02;;;;;;;47.23;30.80;;;;;;;11.23;100.00;93365.50;5102772;28;20191;-68
2022/11/08 07:25:29;;;;;;;55.13;31.03;;;;;;;11.07;100.00;93353.50;5109097;28;20229;-69
2022/11/08 07:27:56;;;;;;;45.80;28.17;;;;;;;11.10;100.00;93329.47;5109015;28;20222;-69
2022/11/08 07:30:21;;;;;;;48.33;31.17;;;;;;;11.41;100.00;93360.78;5108299;28;20272;-69
2022/11/08 07:32:46;;;;;;;48.93;29.87;;;;;;;11.53;100.00;93374.34;5109236;28;20218;-68
2022/11/08 07:35:12;;;;;;;46.40;29.00;;;;;;;11.55;100.00;93362.56;5107458;28;20231;-68
2022/11/08 07:37:37;;;;;;;45.50;29.83;;;;;;;11.66;100.00;93371.22;5108298;28;20200;-68
2022/11/08 07:40:03;;;;;;;47.20;30.37;;;;;;;11.67;100.00;93372.78;5108222;28;20216;-68
2022/11/08 07:42:28;;;;;;;55.33;31.13;;;;;;;11.41;100.00;93368.63;5110001;28;20180;-68
2022/11/08 07:44:54;;;;;;;55.53;31.97;;;;;;;11.64;100.00;93370.69;5108416;28;20239;-68
2022/11/08 07:47:19;;;;;;;45.87;30.67;;;;;;;11.71;100.00;93371.19;5109916;28;20222;-68
2022/11/08 07:49:44;;;;;;;47.33;29.97;;;;;;;11.61;100.00;93343.19;5107660;28;20218;-69
2022/11/08 07:52:10;;;;;;;51.13;30.13;;;;;;;11.88;100.00;93372.44;5109642;28;20714;-69
2022/11/08 07:54:35;;;;;;;44.67;28.93;;;;;;;11.99;100.00;93378.41;5108319;28;20220;-68
2022/11/08 07:57:00;;;;;;;46.53;28.43;;;;;;;11.87;100.00;93360.41;5106055;28;20213;-68
2022/11/08 07:59:26;;;;;;;44.87;29.20;;;;;;;11.88;100.00;93355.94;5106194;28;20216;-68
2022/11/08 08:01:51;;;;;;;42.87;28.63;;;;;;;11.89;100.00;93362.75;5109078;28;20189;-69
2022/11/08 08:04:16;;;;;;;45.33;29.97;;;;;;;11.90;100.00;93372.97;5105032;28;20188;-71
2022/11/08 08:06:42;;;;;;;49.57;29.83;;;;;;;11.67;100.00;93370.94;5106784;28;20196;-71
2022/11/08 08:09:07;;;;;;;50.27;30.70;;;;;;;11.90;100.00;93372.16;5108333;28;20203;-71
2022/11/08 08:11:32;;;;;;;42.33;28.47;;;;;;;11.52;100.00;93330.94;5109774;28;20207;-71
2022/11/08 08:13:58;;;;;;;50.03;30.13;;;;;;;11.75;100.00;93374.84;5108946;28;20197;-71
2022/11/08 08:16:23;;;;;;;47.73;27.97;;;;;;;11.83;100.00;93367.22;5104512;28;20227;-70
2022/11/08 08:18:49;;;;;;;46.20;28.23;;;;;;;11.95;100.00;93370.31;5107956;28;20194;-69
2022/11/08 08:21:15;;;;;;;50.50;30.67;;;;;;;11.93;100.00;93361.97;5106109;28;20220;-70
2022/11/08 08:23:40;;;;;;;49.03;29.93;;;;;;;11.91;100.00;93377.13;5106295;28;20217;-70
2022/11/08 08:26:06;;;;;;;45.13;28.97;;;;;;;12.00;100.00;93377.38;5108478;28;20263;-70
2022/11/08 08:28:31;;;;;;;53.67;29.40;;;;;;;11.94;100.00;93370.59;5109091;28;20199;-71
2022/11/08 08:30:57;;;;;;;42.67;28.03;;;;;;;11.89;100.00;93373.22;5107411;28;20258;-71
2022/11/08 08:33:23;;;;;;;43.67;29.33;;;;;;;11.97;100.00;93380.53;5107656;28;20200;-71
2022/11/08 08:35:48;;;;;;;44.33;29.40;;;;;;;12.18;100.00;93382.00;5106710;28;20238;-72
2022/11/08 08:38:13;;;;;;;45.67;29.47;;;;;;;12.05;100.00;93374.72;5108835;28;20196;-72
2022/11/08 08:40:39;;;;;;;42.93;27.13;;;;;;;12.15;100.00;93379.91;5107446;28;20242;-73
2022/11/08 08:43:05;;;;;;;37.80;27.07;;;;;;;12.25;100.00;93383.25;5107748;28;20200;-73
2022/11/08 08:45:32;;;;;;;43.20;27.90;;;;;;;12.33;100.00;93384.53;5108384;28;20223;-71
2022/11/08 08:47:58;;;;;;;38.53;26.83;;;;;;;12.05;100.00;93382.56;5107800;28;20220;-72
2022/11/08 08:50:26;;;;;;;48.17;27.40;;;;;;;12.15;100.00;93385.94;5107880;28;20813;-71
2022/11/08 08:52:56;;;;;;;40.00;27.03;;;;;;;12.18;100.00;93389.84;5106950;28;20249;-71
2022/11/08 08:55:22;;;;;;;41.80;26.83;;;;;;;12.22;100.00;93396.09;5107667;28;20222;-69
2022/11/08 08:57:47;;;;;;;42.83;26.83;;;;;;;12.19;100.00;93389.59;5106421;28;20215;-69
2022/11/08 09:00:14;;;;;;;41.77;27.27;;;;;;;12.07;100.00;93393.56;5107963;28;20224;-68
2022/11/08 09:02:40;;;;;;;36.47;26.40;;;;;;;12.15;100.00;93396.41;5107360;28;20190;-69
2022/11/08 09:05:06;;;;;;;44.43;28.37;;;;;;;12.29;100.00;93399.22;5099454;28;20230;-69
2022/11/08 09:07:31;;;;;;;40.70;26.73;;;;;;;12.22;100.00;93391.66;5086993;28;20268;-69
2022/11/08 09:09:56;;;;;;;35.30;25.00;;;;;;;12.27;100.00;93396.09;5092643;28;20242;-69
2022/11/08 09:12:22;;;;;;;33.23;24.90;;;;;;;12.10;100.00;93395.63;5106675;28;20204;-69
2022/11/08 09:14:47;;;;;;;32.47;23.80;;;;;;;12.36;100.00;93395.25;5099993;28;20259;-69
2022/11/08 09:17:13;;;;;;;29.63;22.77;;;;;;;12.28;100.00;93395.06;5087599;28;20188;-68
2022/11/08 09:19:38;;;;;;;32.43;24.00;;;;;;;12.31;100.00;93394.50;5092462;28;20223;-68
2022/11/08 09:22:03;;;;;;;35.73;24.83;;;;;;;12.31;100.00;93389.28;5107668;28;20216;-68
2022/11/08 09:24:29;;;;;;;31.10;23.70;;;;;;;12.44;100.00;93376.38;5108489;28;20238;-68
2022/11/08 09:26:54;;;;;;;33.80;23.90;;;;;;;12.36;100.00;93390.03;5106794;28;20200;-69
2022/11/08 09:29:20;;;;;;;32.00;22.47;;;;;;;12.57;99.60;93395.94;5108935;28;20204;-68
2022/11/08 09:31:45;;;;;;;29.37;22.77;;;;;;;12.48;99.90;93393.09;5112433;28;20190;-69
2022/11/08 09:34:11;;;;;;;32.33;24.13;;;;;;;12.84;99.07;93394.44;5111205;28;20198;-70
2022/11/08 09:36:36;;;;;;;34.63;24.87;;;;;;;12.73;97.67;93371.22;5111178;28;20206;-70
2022/11/08 09:39:01;;;;;;;37.47;24.43;;;;;;;12.89;98.37;93391.00;5112322;28;20206;-70
2022/11/08 09:41:35;;;;;;;33.33;23.20;;;;;;;12.78;98.77;93386.88;5111241;28;20223;-70
2022/11/08 09:44:48;;;;;;;32.50;25.07;;;;;;;13.01;96.36;93386.25;5109558;28;20207;-68
2022/11/08 09:47:46;;;;;;;39.07;24.30;;;;;;;12.82;97.25;93385.31;5085263;28;20228;-68
2022/11/08 09:50:21;;;;;;;36.27;22.63;;;;;;;12.63;98.59;93379.13;5087989;28;20996;-70
2022/11/08 09:53:17;;;;;;;37.87;25.13;;;;;;;12.75;97.68;93376.94;5100422;28;20191;-70
2022/11/08 09:55:55;;;;;;;36.17;23.87;;;;;;;13.17;95.05;93384.28;5086932;28;20605;-69
2022/11/08 09:58:39;;;;;;;29.50;22.63;;;;;;;12.98;95.71;93374.44;5099313;28;20190;-69
2022/11/08 10:01:10;;;;;;;33.63;23.27;;;;;;;12.89;96.59;93377.91;5107039;28;20277;-69
2022/11/08 10:03:35;;;;;;;32.37;23.20;;;;;;;12.82;97.24;93378.19;5111331;28;20180;-68
2022/11/08 10:06:36;;;;;;;32.50;24.33;;;;;;;13.13;94.54;93373.56;5099176;28;20216;-69
2022/11/08 10:09:35;;;;;;;32.53;23.83;;;;;;;13.03;94.88;93375.50;5094517;28;20204;-68
2022/11/08 10:12:15;;;;;;;33.90;23.57;;;;;;;13.19;94.84;93354.09;5088812;28;20217;-69
2022/11/08 10:14:55;;;;;;;34.33;22.53;;;;;;;13.39;93.35;93371.50;5092201;28;20239;-69
2022/11/08 10:17:30;;;;;;;34.10;24.27;;;;;;;13.14;93.92;93362.00;5098773;28;20192;-69
2022/11/08 10:20:26;;;;;;;33.33;24.53;;;;;;;12.65;94.44;93364.69;5096766;28;20231;-69
2022/11/08 10:23:10;;;;;;;33.30;21.43;;;;;;;13.10;94.04;93368.88;5088976;28;20219;-67
2022/11/08 10:25:43;;;;;;;31.63;22.17;;;;;;;13.04;92.39;93350.84;5101763;28;20227;-67
2022/11/08 10:28:14;;;;;;;33.07;23.80;;;;;;;13.10;92.74;93361.00;5110692;28;20211;-68
2022/11/08 10:30:41;;;;;;;28.83;22.77;;;;;;;13.43;90.70;93362.03;5108894;28;20211;-68
2022/11/08 10:33:38;;;;;;;28.17;23.33;;;;;;;13.38;90.83;93354.19;5110444;28;20245;-68
2022/11/08 10:36:17;;;;;;;28.07;21.17;;;;;;;13.26;89.31;93356.41;5095852;28;20257;-68
2022/11/08 10:39:08;;;;;;;28.33;21.53;;;;;;;13.23;88.13;93346.47;5109797;28;20187;-69
2022/11/08 10:42:11;;;;;;;34.30;22.63;;;;;;;13.51;88.13;93340.44;5109342;28;20224;-69
2022/11/08 10:44:39;;;;;;;30.33;22.30;;;;;;;13.34;88.78;93334.84;5097985;28;20235;-69
2022/11/08 10:47:11;;;;;;;28.87;21.30;;;;;;;13.36;88.49;93335.31;5110361;28;20283;-69
2022/11/08 10:49:39;;;;;;;30.00;22.37;;;;;;;13.12;87.59;93343.13;5109671;28;20234;-69
2022/11/08 10:52:11;;;;;;;30.23;21.90;;;;;;;13.38;87.21;93349.75;5110628;28;20191;-68
2022/11/08 10:54:51;;;;;;;31.67;21.20;;;;;;;13.67;84.86;93347.84;5106054;28;20227;-68
2022/11/08 10:57:31;;;;;;;27.87;22.00;;;;;;;13.55;85.55;93347.47;5088439;28;20200;-68
2022/11/08 11:00:14;;;;;;;31.80;22.20;;;;;;;13.69;85.14;93343.13;5096965;28;20216;-68
2022/11/08 11:02:39;;;;;;;26.83;21.50;;;;;;;13.70;84.27;93336.00;5108621;28;20176;-67
2022/11/08 11:05:22;;;;;;;29.20;22.40;;;;;;;13.94;83.76;93340.22;5110133;28;20220;-67
2022/11/08 11:07:56;;;;;;;32.17;21.70;;;;;;;13.89;84.01;93336.84;5109981;28;20267;-69
2022/11/08 11:10:27;;;;;;;31.37;21.43;;;;;;;13.66;84.90;93325.31;5108206;28;20238;-68
2022/11/08 11:13:08;;;;;;;30.60;22.70;;;;;;;13.69;85.20;93334.47;5107873;28;20199;-68
2022/11/08 11:15:35;;;;;;;27.10;21.07;;;;;;;13.47;84.77;93327.09;5108910;28;20227;-68
2022/11/08 11:18:01;;;;;;;34.33;22.23;;;;;;;13.92;84.91;93318.72;5109395;28;20268;-68
2022/11/08 11:20:27;;;;;;;31.77;22.37;;;;;;;13.86;83.67;93327.72;5109545;28;20224;-68
2022/11/08 11:22:53;;;;;;;28.57;19.90;;;;;;;13.82;84.63;93318.81;5109472;28;20216;-68
2022/11/08 11:25:22;;;;;;;34.53;23.00;;;;;;;14.02;83.68;93323.06;5109763;28;20310;-68
2022/11/08 11:27:53;;;;;;;34.73;22.47;;;;;;;13.75;83.58;93313.13;5109216;28;20208;-68
2022/11/08 11:30:32;;;;;;;28.00;21.00;;;;;;;14.05;82.99;93319.88;5106988;28;20238;-68
2022/11/08 11:33:23;;;;;;;30.23;21.13;;;;;;;13.49;83.78;93329.44;5109476;28;20262;-68
2022/11/08 11:35:54;;;;;;;32.50;21.80;;;;;;;13.24;85.77;93321.81;5106221;28;20217;-69
2022/11/08 11:38:32;;;;;;;30.47;21.17;;;;;;;13.49;85.76;93322.34;5110075;28;20176;-70